createdAt,value
2022-10-05T00:00:21.255Z,17.10
2022-10-05T00:02:48.308Z,17.10
2022-10-05T00:05:27.539Z,17.10
2022-10-05T00:07:54.504Z,17.10
2022-10-05T00:10:21.159Z,17.10
2022-10-05T00:12:47.967Z,17.20
2022-10-05T00:15:15.317Z,17.20
2022-10-05T00:17:41.997Z,17.20
2022-10-05T00:20:14.447Z,17.20
2022-10-05T00:22:41.137Z,17.20
2022-10-05T00:25:15.702Z,17.20
2022-10-05T00:27:42.465Z,17.30
2022-10-05T00:30:19.203Z,17.30
2022-10-05T00:32:46.178Z,17.30
2022-10-05T00:35:13.117Z,17.30
2022-10-05T00:37:39.872Z,17.30
2022-10-05T00:40:20.260Z,17.30
2022-10-05T00:43:05.840Z,17.30
2022-10-05T00:45:58.803Z,17.30
2022-10-05T00:48:45.927Z,17.30
2022-10-05T00:51:18.967Z,17.20
2022-10-05T00:54:03.903Z,17.30
2022-10-05T00:56:33.767Z,17.30
2022-10-05T00:59:03.759Z,17.30
2022-10-05T01:01:32.283Z,17.30
2022-10-05T01:04:05.142Z,17.30
2022-10-05T01:06:50.726Z,17.30
2022-10-05T01:09:22.693Z,17.30
2022-10-05T01:11:54.840Z,17.30
2022-10-05T01:14:36.703Z,17.30
2022-10-05T01:17:06.018Z,17.30
2022-10-05T01:19:46.244Z,17.30
2022-10-05T01:22:42.334Z,17.30
2022-10-05T01:25:24.107Z,17.30
2022-10-05T01:27:53.567Z,17.30
2022-10-05T01:30:20.553Z,17.30
2022-10-05T01:32:59.329Z,17.30
2022-10-05T01:35:32.169Z,17.30
2022-10-05T01:38:17.367Z,17.30
2022-10-05T01:40:47.040Z,17.30
2022-10-05T01:43:20.160Z,17.30
2022-10-05T01:45:53.748Z,17.30
2022-10-05T01:48:30.902Z,17.30
2022-10-05T01:51:04.108Z,17.30
2022-10-05T01:53:30.955Z,17.40
2022-10-05T01:56:02.691Z,17.30
2022-10-05T01:58:45.347Z,17.30
2022-10-05T02:01:12.016Z,17.30
2022-10-05T02:03:42.095Z,17.30
2022-10-05T02:06:10.267Z,17.30
2022-10-05T02:08:38.252Z,17.30
2022-10-05T02:11:08.725Z,17.30
2022-10-05T02:13:49.365Z,17.30
2022-10-05T02:16:19.206Z,17.30
2022-10-05T02:18:56.941Z,17.30
2022-10-05T02:21:23.610Z,17.30
2022-10-05T02:23:50.827Z,17.30
2022-10-05T02:26:17.564Z,17.30
2022-10-05T02:28:46.601Z,17.40
2022-10-05T02:31:23.206Z,17.30
2022-10-05T02:33:50.002Z,17.30
2022-10-05T02:36:17.712Z,17.40
2022-10-05T02:39:05.995Z,17.40
2022-10-05T02:41:32.845Z,17.40
2022-10-05T02:43:59.496Z,17.40
2022-10-05T02:46:36.762Z,17.40
2022-10-05T02:49:22.287Z,17.30
2022-10-05T02:51:58.015Z,17.30
2022-10-05T02:54:36.932Z,17.20
2022-10-05T02:57:03.853Z,17.40
2022-10-05T02:59:39.220Z,17.40
2022-10-05T03:02:12.426Z,17.40
2022-10-05T03:04:45.298Z,17.40
2022-10-05T03:07:12.024Z,17.30
2022-10-05T03:09:44.317Z,17.30
2022-10-05T03:12:19.134Z,17.30
2022-10-05T03:15:01.879Z,17.30
2022-10-05T03:17:30.600Z,17.30
2022-10-05T03:20:16.078Z,17.30
2022-10-05T03:23:15.182Z,17.30
2022-10-05T03:25:51.107Z,17.30
2022-10-05T03:28:23.999Z,17.30
2022-10-05T03:30:56.872Z,17.30
2022-10-05T03:33:29.857Z,17.30
2022-10-05T03:36:09.225Z,17.30
2022-10-05T03:39:02.560Z,17.30
2022-10-05T03:41:42.819Z,17.30
2022-10-05T03:44:12.507Z,17.30
2022-10-05T03:46:43.138Z,17.30
2022-10-05T03:49:15.970Z,17.30
2022-10-05T03:51:43.659Z,17.30
2022-10-05T03:54:13.206Z,17.30
2022-10-05T03:56:43.158Z,17.30
2022-10-05T03:59:09.877Z,17.20
2022-10-05T04:01:40.657Z,17.20
2022-10-05T04:04:07.603Z,17.30
2022-10-05T04:06:35.126Z,17.30
2022-10-05T04:09:15.403Z,17.20
2022-10-05T04:11:52.990Z,17.20
2022-10-05T04:14:26.890Z,17.20
2022-10-05T04:16:58.620Z,17.20
2022-10-05T04:19:37.375Z,17.20
2022-10-05T04:22:06.489Z,17.20
2022-10-05T04:24:39.131Z,17.20
2022-10-05T04:27:08.886Z,17.20
2022-10-05T04:29:38.643Z,17.20
2022-10-05T04:32:17.642Z,17.20
2022-10-05T04:34:59.013Z,17.20
2022-10-05T04:37:30.650Z,17.20
2022-10-05T04:40:14.303Z,17.20
2022-10-05T04:42:50.263Z,17.20
2022-10-05T04:45:46.372Z,17.20
2022-10-05T04:48:29.957Z,17.20
2022-10-05T04:51:05.810Z,17.20
2022-10-05T04:53:52.254Z,17.20
2022-10-05T04:56:20.271Z,17.20
2022-10-05T04:58:59.815Z,17.30
2022-10-05T05:01:41.715Z,17.30
2022-10-05T05:04:41.217Z,17.30
2022-10-05T05:07:12.399Z,17.30
2022-10-05T05:09:39.014Z,17.30
2022-10-05T05:12:12.051Z,17.30
2022-10-05T05:14:38.724Z,17.30
2022-10-05T05:17:13.280Z,17.30
2022-10-05T05:19:58.813Z,17.30
2022-10-05T05:22:26.133Z,17.30
2022-10-05T05:25:13.294Z,17.00
2022-10-05T05:27:43.525Z,17.30
2022-10-05T05:30:22.675Z,17.30
2022-10-05T05:33:08.381Z,17.30
2022-10-05T05:35:38.136Z,17.30
2022-10-05T05:38:14.846Z,17.30
2022-10-05T05:40:47.652Z,17.30
2022-10-05T05:43:37.735Z,17.30
2022-10-05T05:46:06.379Z,17.30
2022-10-05T05:48:33.326Z,17.30
2022-10-05T05:51:01.938Z,17.30
2022-10-05T05:53:30.081Z,17.30
2022-10-05T05:56:01.573Z,17.30
2022-10-05T05:58:35.650Z,17.30
2022-10-05T06:01:25.012Z,17.30
2022-10-05T06:04:00.332Z,17.30
2022-10-05T06:06:27.641Z,17.30
2022-10-05T06:08:58.711Z,17.30
2022-10-05T06:11:40.486Z,17.30
2022-10-05T06:14:27.480Z,17.30
2022-10-05T06:17:13.068Z,17.30
2022-10-05T06:19:47.736Z,16.70
2022-10-05T06:22:16.780Z,17.30
2022-10-05T06:24:53.507Z,17.30
2022-10-05T06:27:45.781Z,17.30
2022-10-05T06:30:16.024Z,17.30
2022-10-05T06:33:01.375Z,17.30
2022-10-05T06:35:46.925Z,17.30
2022-10-05T06:38:19.924Z,17.30
2022-10-05T06:41:08.293Z,17.40
2022-10-05T06:43:37.794Z,17.40
2022-10-05T06:46:13.662Z,17.40
2022-10-05T06:48:52.825Z,17.40
2022-10-05T06:51:38.090Z,17.40
2022-10-05T06:54:20.202Z,17.40
2022-10-05T06:56:56.738Z,17.50
2022-10-05T06:59:29.594Z,17.50
2022-10-05T07:01:56.428Z,17.50
2022-10-05T07:04:26.980Z,17.50
2022-10-05T07:06:59.622Z,17.50
2022-10-05T07:09:41.665Z,17.50
2022-10-05T07:12:14.582Z,17.60
2022-10-05T07:14:44.413Z,17.60
2022-10-05T07:17:11.045Z,17.50
2022-10-05T07:19:41.697Z,17.60
2022-10-05T07:22:20.150Z,17.60
2022-10-05T07:25:10.019Z,17.70
2022-10-05T07:27:57.965Z,17.60
2022-10-05T07:30:24.815Z,17.70
2022-10-05T07:32:59.671Z,17.70
2022-10-05T07:35:58.412Z,17.70
2022-10-05T07:38:27.799Z,17.70
2022-10-05T07:40:56.326Z,17.70
2022-10-05T07:44:00.611Z,17.70
2022-10-05T07:46:27.185Z,17.70
2022-10-05T07:48:53.895Z,17.70
2022-10-05T07:51:29.927Z,17.70
2022-10-05T07:53:56.636Z,17.80
2022-10-05T07:56:29.532Z,17.80
2022-10-05T07:59:01.660Z,17.80
2022-10-05T08:01:29.678Z,17.80
2022-10-05T08:03:56.390Z,17.90
2022-10-05T08:06:26.064Z,17.90
2022-10-05T08:09:11.820Z,18.00
2022-10-05T08:12:04.937Z,18.00
2022-10-05T08:14:34.905Z,18.00
2022-10-05T08:17:08.007Z,17.90
2022-10-05T08:19:37.624Z,17.90
2022-10-05T08:22:05.377Z,18.00
2022-10-05T08:24:41.410Z,18.10
2022-10-05T08:27:16.511Z,18.30
2022-10-05T08:29:46.360Z,18.40
2022-10-05T08:32:33.810Z,18.60
2022-10-05T08:35:12.686Z,18.70
2022-10-05T08:37:39.849Z,18.80
2022-10-05T08:40:18.778Z,18.90
2022-10-05T08:42:51.567Z,19.00
2022-10-05T08:45:21.444Z,19.20
2022-10-05T08:47:48.045Z,19.20
2022-10-05T08:50:33.531Z,19.30
2022-10-05T08:53:19.596Z,19.30
2022-10-05T08:55:50.901Z,19.20
2022-10-05T08:58:32.300Z,19.20
2022-10-05T09:01:05.176Z,19.30
2022-10-05T09:03:34.759Z,19.30
2022-10-05T09:06:01.584Z,19.40
2022-10-05T09:08:29.833Z,19.30
2022-10-05T09:11:04.158Z,19.30
2022-10-05T09:13:48.629Z,19.20
2022-10-05T09:16:34.280Z,19.20
2022-10-05T09:19:09.932Z,19.10
2022-10-05T09:21:40.305Z,19.10
2022-10-05T09:24:06.923Z,19.10
2022-10-05T09:27:06.050Z,19.10
2022-10-05T09:29:51.218Z,19.10
2022-10-05T09:32:30.530Z,19.10
2022-10-05T09:35:00.337Z,19.10
2022-10-05T09:37:33.573Z,19.00
2022-10-05T09:40:01.547Z,19.10
2022-10-05T09:42:37.381Z,19.10
2022-10-05T09:45:10.140Z,19.20
2022-10-05T09:47:55.909Z,19.20
2022-10-05T09:50:38.014Z,19.20
2022-10-05T09:53:23.651Z,19.10
2022-10-05T09:55:56.487Z,19.20
2022-10-05T09:58:41.871Z,19.20
2022-10-05T10:01:36.369Z,19.20
2022-10-05T10:04:23.376Z,19.20
2022-10-05T10:07:02.278Z,19.20
2022-10-05T10:09:41.052Z,19.30
2022-10-05T10:12:16.573Z,19.30
2022-10-05T10:14:52.194Z,19.40
2022-10-05T10:17:25.041Z,19.50
2022-10-05T10:19:51.709Z,19.50
2022-10-05T10:22:45.808Z,19.60
2022-10-05T10:25:16.627Z,19.60
2022-10-05T10:27:54.381Z,19.60
2022-10-05T10:30:31.999Z,19.60
2022-10-05T10:33:05.499Z,19.60
2022-10-05T10:35:35.946Z,19.60
2022-10-05T10:38:41.502Z,19.50
2022-10-05T10:41:20.129Z,19.50
2022-10-05T10:44:05.629Z,19.40
2022-10-05T10:46:35.677Z,19.40
2022-10-05T10:49:02.432Z,19.30
2022-10-05T10:51:41.320Z,19.30
2022-10-05T10:54:12.301Z,19.30
2022-10-05T10:57:05.303Z,19.40
2022-10-05T11:00:07.601Z,19.40
2022-10-05T11:02:53.051Z,19.60
2022-10-05T11:05:27.964Z,19.60
2022-10-05T11:07:58.308Z,19.60
2022-10-05T11:10:44.092Z,19.60
2022-10-05T11:13:10.714Z,19.60
2022-10-05T11:15:49.466Z,19.70
2022-10-05T11:18:22.236Z,19.70
2022-10-05T11:21:06.972Z,19.70
2022-10-05T11:23:41.001Z,19.60
2022-10-05T11:26:17.075Z,19.60
2022-10-05T11:29:22.638Z,19.50
2022-10-05T11:31:52.855Z,19.50
2022-10-05T11:34:23.568Z,19.40
2022-10-05T11:36:50.240Z,19.30
2022-10-05T11:39:37.107Z,19.30
2022-10-05T11:42:20.829Z,19.20
2022-10-05T11:45:07.815Z,19.20
2022-10-05T11:47:40.715Z,19.20
2022-10-05T11:50:34.227Z,19.20
2022-10-05T11:53:44.657Z,19.10
2022-10-05T11:59:11.364Z,18.90
2022-10-05T12:01:41.776Z,18.90
2022-10-05T12:04:14.332Z,18.90
2022-10-05T12:06:45.209Z,18.90
2022-10-05T12:09:30.801Z,18.90
2022-10-05T12:12:07.666Z,19.00
2022-10-05T12:14:43.592Z,19.20
2022-10-05T12:17:40.981Z,19.50
2022-10-05T12:23:06.509Z,19.10
2022-10-05T12:25:35.195Z,20.30
2022-10-05T12:28:05.090Z,20.40
2022-10-05T12:30:51.088Z,20.30
2022-10-05T12:33:20.841Z,20.20
2022-10-05T12:35:49.005Z,19.90
2022-10-05T12:38:16.128Z,19.50
2022-10-05T12:40:51.081Z,19.20
2022-10-05T12:43:47.388Z,19.00
2022-10-05T12:46:14.204Z,18.80
2022-10-05T12:48:42.327Z,18.50
2022-10-05T12:51:27.990Z,18.30
2022-10-05T12:53:54.625Z,18.10
2022-10-05T12:56:30.908Z,17.90
2022-10-05T12:59:00.536Z,17.70
2022-10-05T13:01:31.767Z,17.50
2022-10-05T13:04:18.600Z,17.40
2022-10-05T13:07:04.174Z,17.40
2022-10-05T13:09:54.094Z,17.30
2022-10-05T13:12:23.904Z,17.30
2022-10-05T13:14:56.379Z,17.30
2022-10-05T13:17:30.779Z,17.50
2022-10-05T13:19:58.156Z,17.60
2022-10-05T13:22:28.190Z,17.70
2022-10-05T13:25:13.405Z,17.80
2022-10-05T13:27:41.187Z,17.80
2022-10-05T13:30:10.934Z,18.00
2022-10-05T13:32:42.061Z,18.10
2022-10-05T13:35:28.207Z,18.20
2022-10-05T13:38:10.208Z,18.20
2022-10-05T13:40:36.922Z,18.30
2022-10-05T13:43:07.890Z,18.40
2022-10-05T13:45:35.630Z,18.40
2022-10-05T13:48:09.586Z,18.50
2022-10-05T13:50:48.354Z,18.50
2022-10-05T13:53:34.094Z,18.50
2022-10-05T13:56:07.389Z,18.50
2022-10-05T13:58:40.273Z,18.40
2022-10-05T14:01:13.415Z,18.10
2022-10-05T14:03:40.477Z,17.80
2022-10-05T14:06:14.357Z,17.30
2022-10-05T14:08:53.556Z,17.10
2022-10-05T14:11:20.885Z,16.90
2022-10-05T14:13:47.926Z,16.60
2022-10-05T14:16:14.696Z,16.50
2022-10-05T14:18:58.302Z,16.40
2022-10-05T14:21:26.174Z,16.40
2022-10-05T14:23:52.927Z,16.40
2022-10-05T14:26:25.694Z,16.50
2022-10-05T14:28:59.759Z,16.50
2022-10-05T14:31:27.368Z,16.50
2022-10-05T14:33:54.184Z,16.50
2022-10-05T14:36:34.266Z,16.50
2022-10-05T14:39:03.779Z,16.50
2022-10-05T14:41:34.371Z,16.50
2022-10-05T14:44:02.079Z,16.50
2022-10-05T14:46:29.923Z,16.50
2022-10-05T14:49:17.109Z,16.50
2022-10-05T14:51:44.023Z,16.50
2022-10-05T14:54:29.377Z,16.60
2022-10-05T14:57:02.868Z,16.60
2022-10-05T14:59:32.767Z,16.60
2022-10-05T15:01:59.522Z,16.60
2022-10-05T15:04:37.576Z,16.70
2022-10-05T15:07:11.128Z,16.70
2022-10-05T15:09:47.908Z,16.70
2022-10-05T15:12:16.219Z,16.70
2022-10-05T15:14:43.731Z,16.70
2022-10-05T15:17:16.244Z,16.70
2022-10-05T15:19:49.763Z,16.70
2022-10-05T15:22:22.830Z,16.70
2022-10-05T15:25:00.521Z,16.60
2022-10-05T15:27:31.974Z,16.60
2022-10-05T15:30:03.279Z,16.60
2022-10-05T15:32:41.572Z,16.50
2022-10-05T15:35:11.443Z,16.50
2022-10-05T15:37:40.379Z,16.50
2022-10-05T15:40:07.475Z,16.50
2022-10-05T15:42:43.067Z,16.40
2022-10-05T15:45:31.787Z,16.30
2022-10-05T15:48:08.660Z,16.30
2022-10-05T15:50:36.300Z,16.30
2022-10-05T15:53:15.417Z,16.20
2022-10-05T15:55:48.210Z,16.20
2022-10-05T15:58:19.871Z,16.20
2022-10-05T16:00:58.891Z,16.10
2022-10-05T16:03:34.582Z,16.10
2022-10-05T16:06:20.698Z,16.10
2022-10-05T16:08:50.519Z,16.00
2022-10-05T16:11:37.665Z,16.00
2022-10-05T16:14:13.628Z,15.90
2022-10-05T16:16:42.041Z,15.90
2022-10-05T16:19:14.718Z,15.80
2022-10-05T16:21:51.533Z,15.80
2022-10-05T16:24:37.168Z,15.80
2022-10-05T16:27:04.398Z,15.70
2022-10-05T16:29:33.928Z,15.70
2022-10-05T16:32:02.671Z,15.70
2022-10-05T16:34:35.192Z,15.70
2022-10-05T16:37:20.751Z,15.60
2022-10-05T16:39:50.383Z,15.60
2022-10-05T16:42:35.755Z,15.60
2022-10-05T16:45:08.586Z,15.60
2022-10-05T16:47:47.606Z,15.60
2022-10-05T16:50:24.730Z,15.60
2022-10-05T16:53:02.282Z,15.60
2022-10-05T16:55:39.050Z,15.50
2022-10-05T16:58:06.518Z,15.50
2022-10-05T17:00:51.656Z,15.40
2022-10-05T17:03:18.328Z,15.40
2022-10-05T17:05:48.002Z,15.30
2022-10-05T17:08:17.814Z,15.30
2022-10-05T17:10:56.967Z,15.20
2022-10-05T17:13:23.762Z,15.20
2022-10-05T17:16:00.772Z,15.10
2022-10-05T17:18:30.042Z,15.10
2022-10-05T17:21:01.070Z,15.10
2022-10-05T17:23:33.748Z,15.10
2022-10-05T17:26:20.614Z,15.00
2022-10-05T17:28:57.779Z,14.90
2022-10-05T17:31:25.953Z,14.90
2022-10-05T17:34:07.057Z,14.80
2022-10-05T17:36:43.030Z,14.80
2022-10-05T17:39:14.573Z,14.80
2022-10-05T17:41:41.381Z,14.80
2022-10-05T17:44:16.306Z,14.70
2022-10-05T17:46:46.154Z,14.80
2022-10-05T17:49:19.980Z,14.70
2022-10-05T17:52:05.171Z,14.70
2022-10-05T17:54:51.037Z,14.60
2022-10-05T17:57:22.192Z,14.60
2022-10-05T17:59:58.195Z,14.60
2022-10-05T18:02:42.984Z,14.50
2022-10-05T18:05:12.874Z,14.50
2022-10-05T18:07:40.165Z,14.50
2022-10-05T18:10:11.589Z,14.40
2022-10-05T18:12:39.808Z,14.40
2022-10-05T18:15:06.459Z,14.40
2022-10-05T18:17:53.082Z,14.30
2022-10-05T18:20:22.921Z,14.30
2022-10-05T18:22:53.067Z,14.30
2022-10-05T18:25:20.273Z,14.30
2022-10-05T18:28:00.899Z,14.30
2022-10-05T18:30:28.438Z,14.20
2022-10-05T18:32:55.198Z,14.20
2022-10-05T18:35:27.128Z,14.20
2022-10-05T18:38:12.104Z,14.20
2022-10-05T18:40:47.995Z,14.20
2022-10-05T18:43:18.361Z,14.20
2022-10-05T18:45:48.310Z,14.10
2022-10-05T18:48:18.118Z,14.10
2022-10-05T18:50:51.156Z,14.10
2022-10-05T18:53:37.650Z,14.10
2022-10-05T18:56:23.149Z,14.00
2022-10-05T18:58:56.983Z,14.00
2022-10-05T19:01:43.018Z,14.00
2022-10-05T19:04:28.545Z,14.00
2022-10-05T19:07:01.763Z,14.00
2022-10-05T19:09:47.355Z,14.00
2022-10-05T19:12:25.974Z,13.90
2022-10-05T19:14:56.487Z,13.80
2022-10-05T19:17:23.259Z,13.80
2022-10-05T19:20:01.989Z,13.80
2022-10-05T19:22:47.449Z,13.80
2022-10-05T19:25:29.399Z,13.70
2022-10-05T19:28:15.498Z,13.70
2022-10-05T19:30:45.972Z,13.60
2022-10-05T19:33:26.219Z,13.60
2022-10-05T19:36:07.051Z,13.60
2022-10-05T19:38:55.197Z,13.60
2022-10-05T19:41:25.931Z,13.50
2022-10-05T19:44:06.523Z,13.50
2022-10-05T19:46:42.640Z,13.40
2022-10-05T19:49:09.473Z,13.30
2022-10-05T19:51:37.228Z,13.40
2022-10-05T19:54:12.989Z,13.30
2022-10-05T19:56:47.260Z,13.20
2022-10-05T19:59:17.609Z,13.20
2022-10-05T20:01:47.909Z,13.20
2022-10-05T20:04:16.398Z,13.20
2022-10-05T20:06:43.284Z,13.20
2022-10-05T20:09:19.903Z,13.10
2022-10-05T20:11:50.744Z,13.10
2022-10-05T20:14:18.182Z,13.10
2022-10-05T20:17:03.599Z,13.10
2022-10-05T20:19:52.043Z,13.10
2022-10-05T20:22:28.871Z,13.00
2022-10-05T20:24:56.756Z,13.00
2022-10-05T20:27:35.776Z,13.00
2022-10-05T20:30:02.617Z,12.90
2022-10-05T20:32:30.781Z,13.00
2022-10-05T20:34:57.839Z,12.90
2022-10-05T20:37:24.709Z,12.90
2022-10-05T20:39:51.425Z,12.90
2022-10-05T20:42:18.326Z,12.80
2022-10-05T20:44:47.391Z,12.80
2022-10-05T20:47:14.644Z,12.80
2022-10-05T20:49:41.485Z,12.80
2022-10-05T20:52:10.184Z,12.80
2022-10-05T20:54:37.351Z,12.80
2022-10-05T20:57:06.660Z,12.80
2022-10-05T20:59:33.572Z,12.70
2022-10-05T21:02:01.486Z,12.70
2022-10-05T21:04:40.343Z,12.70
2022-10-05T21:07:07.820Z,12.70
2022-10-05T21:09:34.684Z,12.80
2022-10-05T21:12:01.688Z,12.70
2022-10-05T21:14:33.048Z,12.70
2022-10-05T21:17:00.099Z,12.70
2022-10-05T21:19:26.894Z,12.70
2022-10-05T21:21:54.344Z,12.70
2022-10-05T21:24:21.151Z,12.70
2022-10-05T21:26:47.792Z,12.60
2022-10-05T21:29:14.684Z,12.60
2022-10-05T21:31:41.636Z,12.60
2022-10-05T21:34:16.088Z,12.60
2022-10-05T21:36:45.959Z,12.70
2022-10-05T21:39:13.042Z,12.60
2022-10-05T21:41:39.798Z,12.60
2022-10-05T21:44:06.760Z,12.60
2022-10-05T21:46:37.706Z,12.60
2022-10-05T21:49:08.275Z,12.50
2022-10-05T21:51:37.873Z,11.30
2022-10-05T21:54:11.716Z,12.50
2022-10-05T21:56:43.236Z,12.50
2022-10-05T21:59:11.029Z,12.50
2022-10-05T22:01:38.034Z,12.50
2022-10-05T22:04:04.991Z,12.50
2022-10-05T22:06:32.018Z,12.40
2022-10-05T22:08:59.624Z,12.40
2022-10-05T22:11:26.383Z,12.40
2022-10-05T22:13:53.682Z,12.40
2022-10-05T22:16:21.412Z,12.40
2022-10-05T22:18:48.489Z,12.40
2022-10-05T22:21:15.555Z,12.40
2022-10-05T22:23:42.717Z,12.40
2022-10-05T22:26:10.707Z,12.40
2022-10-05T22:28:37.669Z,12.40
2022-10-05T22:31:04.904Z,12.30
2022-10-05T22:33:31.603Z,12.30
2022-10-05T22:35:59.263Z,12.30
2022-10-05T22:38:26.552Z,12.30
2022-10-05T22:40:53.432Z,12.30
2022-10-05T22:43:20.737Z,12.30
2022-10-05T22:45:47.822Z,12.30
2022-10-05T22:48:15.800Z,12.30
2022-10-05T22:50:45.679Z,12.20
2022-10-05T22:53:12.850Z,12.20
2022-10-05T22:55:39.649Z,12.20
2022-10-05T22:58:06.425Z,12.20
2022-10-05T23:00:56.224Z,12.20
2022-10-05T23:03:20.349Z,12.20
2022-10-05T23:05:47.183Z,12.20
2022-10-05T23:08:14.233Z,12.10
2022-10-05T23:10:41.126Z,12.10
2022-10-05T23:13:11.588Z,12.10
2022-10-05T23:15:38.284Z,12.00
2022-10-05T23:18:05.597Z,12.00
2022-10-05T23:20:32.265Z,12.00
2022-10-05T23:22:59.439Z,12.00
2022-10-05T23:25:26.101Z,12.00
2022-10-05T23:27:53.328Z,12.00
2022-10-05T23:30:20.330Z,11.90
2022-10-05T23:32:50.617Z,11.90
2022-10-05T23:35:17.290Z,11.90
2022-10-05T23:37:44.363Z,11.90
2022-10-05T23:40:12.319Z,11.80
2022-10-05T23:42:40.161Z,11.80
2022-10-05T23:45:07.776Z,11.80
2022-10-05T23:47:35.052Z,11.70
2022-10-05T23:50:05.410Z,11.80
2022-10-05T23:52:32.024Z,11.70
2022-10-05T23:54:58.793Z,11.70
2022-10-05T23:57:26.113Z,11.70
2022-10-05T23:59:52.865Z,11.70
